sensor_id;sensor_type;location;lat;lon;timestamp;temperature;humidity
81524;DHT22;70954;49.500;10.416;2024-02-21T00:01:33;9.30;61.80
81524;DHT22;70954;49.500;10.416;2024-02-21T00:03:59;9.20;61.80
81524;DHT22;70954;49.500;10.416;2024-02-21T00:06:24;9.20;61.90
81524;DHT22;70954;49.500;10.416;2024-02-21T00:08:50;9.20;62.10
81524;DHT22;70954;49.500;10.416;2024-02-21T00:11:15;9.20;62.00
81524;DHT22;70954;49.500;10.416;2024-02-21T00:13:40;9.20;62.20
81524;DHT22;70954;49.500;10.416;2024-02-21T00:16:06;9.20;62.20
81524;DHT22;70954;49.500;10.416;2024-02-21T00:18:31;9.20;62.20
81524;DHT22;70954;49.500;10.416;2024-02-21T00:20:57;9.20;62.20
81524;DHT22;70954;49.500;10.416;2024-02-21T00:23:22;9.20;62.30
81524;DHT22;70954;49.500;10.416;2024-02-21T00:25:48;9.20;62.30
81524;DHT22;70954;49.500;10.416;2024-02-21T00:28:13;9.20;62.40
81524;DHT22;70954;49.500;10.416;2024-02-21T00:30:38;9.20;62.30
81524;DHT22;70954;49.500;10.416;2024-02-21T00:33:04;9.20;62.50
81524;DHT22;70954;49.500;10.416;2024-02-21T00:35:29;9.20;62.50
81524;DHT22;70954;49.500;10.416;2024-02-21T00:37:55;9.20;62.50
81524;DHT22;70954;49.500;10.416;2024-02-21T00:40:20;9.20;62.60
81524;DHT22;70954;49.500;10.416;2024-02-21T00:42:46;9.20;62.60
81524;DHT22;70954;49.500;10.416;2024-02-21T00:45:12;9.20;62.60
81524;DHT22;70954;49.500;10.416;2024-02-21T00:47:37;9.20;62.50
81524;DHT22;70954;49.500;10.416;2024-02-21T00:50:03;9.10;62.90
81524;DHT22;70954;49.500;10.416;2024-02-21T00:52:28;9.20;62.60
81524;DHT22;70954;49.500;10.416;2024-02-21T00:54:54;9.10;62.70
81524;DHT22;70954;49.500;10.416;2024-02-21T00:57:19;9.10;62.70
81524;DHT22;70954;49.500;10.416;2024-02-21T00:59:45;9.10;62.80
81524;DHT22;70954;49.500;10.416;2024-02-21T01:02:10;9.10;62.90
81524;DHT22;70954;49.500;10.416;2024-02-21T01:04:36;9.10;62.90
81524;DHT22;70954;49.500;10.416;2024-02-21T01:07:01;9.10;62.80
81524;DHT22;70954;49.500;10.416;2024-02-21T01:09:27;9.00;62.90
81524;DHT22;70954;49.500;10.416;2024-02-21T01:11:52;9.00;63.00
81524;DHT22;70954;49.500;10.416;2024-02-21T01:14:18;9.00;63.20
81524;DHT22;70954;49.500;10.416;2024-02-21T01:19:19;9.00;63.20
81524;DHT22;70954;49.500;10.416;2024-02-21T01:21:44;9.00;63.20
81524;DHT22;70954;49.500;10.416;2024-02-21T01:24:10;9.00;63.20
81524;DHT22;70954;49.500;10.416;2024-02-21T01:26:35;9.00;63.20
81524;DHT22;70954;49.500;10.416;2024-02-21T01:29:00;9.00;63.20
81524;DHT22;70954;49.500;10.416;2024-02-21T01:31:26;9.00;63.30
81524;DHT22;70954;49.500;10.416;2024-02-21T01:33:51;9.00;63.30
81524;DHT22;70954;49.500;10.416;2024-02-21T01:36:17;9.00;63.30
81524;DHT22;70954;49.500;10.416;2024-02-21T01:38:42;9.00;63.30
81524;DHT22;70954;49.500;10.416;2024-02-21T01:41:08;9.00;63.40
81524;DHT22;70954;49.500;10.416;2024-02-21T01:43:33;9.00;63.40
81524;DHT22;70954;49.500;10.416;2024-02-21T01:45:59;9.00;63.30
81524;DHT22;70954;49.500;10.416;2024-02-21T01:48:25;9.00;63.50
81524;DHT22;70954;49.500;10.416;2024-02-21T01:50:51;9.00;63.60
81524;DHT22;70954;49.500;10.416;2024-02-21T01:53:27;9.00;63.60
81524;DHT22;70954;49.500;10.416;2024-02-21T01:55:54;9.00;63.50
81524;DHT22;70954;49.500;10.416;2024-02-21T01:58:20;9.00;63.70
81524;DHT22;70954;49.500;10.416;2024-02-21T02:00:47;9.00;63.60
81524;DHT22;70954;49.500;10.416;2024-02-21T02:03:13;9.00;63.70
81524;DHT22;70954;49.500;10.416;2024-02-21T02:05:39;9.00;63.60
81524;DHT22;70954;49.500;10.416;2024-02-21T02:08:05;9.00;63.70
81524;DHT22;70954;49.500;10.416;2024-02-21T02:10:31;9.00;63.60
81524;DHT22;70954;49.500;10.416;2024-02-21T02:12:56;9.00;63.60
81524;DHT22;70954;49.500;10.416;2024-02-21T02:15:22;9.00;63.60
81524;DHT22;70954;49.500;10.416;2024-02-21T02:17:47;9.00;63.70
81524;DHT22;70954;49.500;10.416;2024-02-21T02:20:13;9.00;63.70
81524;DHT22;70954;49.500;10.416;2024-02-21T02:22:39;9.00;63.70
81524;DHT22;70954;49.500;10.416;2024-02-21T02:25:06;9.00;63.80
81524;DHT22;70954;49.500;10.416;2024-02-21T02:27:32;9.00;63.60
81524;DHT22;70954;49.500;10.416;2024-02-21T02:29:57;9.00;63.70
81524;DHT22;70954;49.500;10.416;2024-02-21T02:32:23;9.00;63.90
81524;DHT22;70954;49.500;10.416;2024-02-21T02:34:48;9.00;63.80
81524;DHT22;70954;49.500;10.416;2024-02-21T02:37:13;8.90;63.70
81524;DHT22;70954;49.500;10.416;2024-02-21T02:39:39;8.90;63.80
81524;DHT22;70954;49.500;10.416;2024-02-21T02:42:04;8.90;63.70
81524;DHT22;70954;49.500;10.416;2024-02-21T02:44:30;8.90;63.90
81524;DHT22;70954;49.500;10.416;2024-02-21T02:46:55;8.90;64.00
81524;DHT22;70954;49.500;10.416;2024-02-21T02:49:21;8.90;64.00
81524;DHT22;70954;49.500;10.416;2024-02-21T02:51:46;8.90;64.00
81524;DHT22;70954;49.500;10.416;2024-02-21T02:54:12;8.90;64.00
81524;DHT22;70954;49.500;10.416;2024-02-21T02:56:37;8.90;64.10
81524;DHT22;70954;49.500;10.416;2024-02-21T02:59:03;8.90;64.20
81524;DHT22;70954;49.500;10.416;2024-02-21T03:01:28;8.90;64.00
81524;DHT22;70954;49.500;10.416;2024-02-21T03:03:54;8.80;64.20
81524;DHT22;70954;49.500;10.416;2024-02-21T03:06:19;8.80;64.20
81524;DHT22;70954;49.500;10.416;2024-02-21T03:08:45;8.80;64.20
81524;DHT22;70954;49.500;10.416;2024-02-21T03:11:10;8.80;64.30
81524;DHT22;70954;49.500;10.416;2024-02-21T03:13:36;8.80;64.30
81524;DHT22;70954;49.500;10.416;2024-02-21T03:16:01;8.80;64.30
81524;DHT22;70954;49.500;10.416;2024-02-21T03:18:27;8.80;64.50
81524;DHT22;70954;49.500;10.416;2024-02-21T03:20:52;8.80;64.40
81524;DHT22;70954;49.500;10.416;2024-02-21T03:23:18;8.90;64.50
81524;DHT22;70954;49.500;10.416;2024-02-21T03:25:43;8.90;64.60
81524;DHT22;70954;49.500;10.416;2024-02-21T03:28:09;8.90;64.60
81524;DHT22;70954;49.500;10.416;2024-02-21T03:30:34;8.90;64.90
81524;DHT22;70954;49.500;10.416;2024-02-21T03:32:59;8.90;65.10
81524;DHT22;70954;49.500;10.416;2024-02-21T03:35:25;8.90;64.90
81524;DHT22;70954;49.500;10.416;2024-02-21T03:37:50;8.90;64.90
81524;DHT22;70954;49.500;10.416;2024-02-21T03:40:16;8.80;65.10
81524;DHT22;70954;49.500;10.416;2024-02-21T03:42:41;8.90;65.20
81524;DHT22;70954;49.500;10.416;2024-02-21T03:45:07;8.80;65.50
81524;DHT22;70954;49.500;10.416;2024-02-21T03:47:33;8.80;65.40
81524;DHT22;70954;49.500;10.416;2024-02-21T03:49:58;8.80;65.80
81524;DHT22;70954;49.500;10.416;2024-02-21T03:52:23;8.80;66.10
81524;DHT22;70954;49.500;10.416;2024-02-21T03:54:49;8.80;66.00
81524;DHT22;70954;49.500;10.416;2024-02-21T03:57:14;8.70;66.10
81524;DHT22;70954;49.500;10.416;2024-02-21T03:59:40;8.70;65.90
81524;DHT22;70954;49.500;10.416;2024-02-21T04:02:06;8.70;66.10
81524;DHT22;70954;49.500;10.416;2024-02-21T04:04:31;8.70;66.10
81524;DHT22;70954;49.500;10.416;2024-02-21T04:06:56;8.60;66.10
81524;DHT22;70954;49.500;10.416;2024-02-21T04:09:22;8.70;66.00
81524;DHT22;70954;49.500;10.416;2024-02-21T04:11:47;8.70;66.00
81524;DHT22;70954;49.500;10.416;2024-02-21T04:14:13;8.70;66.30
81524;DHT22;70954;49.500;10.416;2024-02-21T04:16:38;8.80;66.20
81524;DHT22;70954;49.500;10.416;2024-02-21T04:19:04;8.80;66.10
81524;DHT22;70954;49.500;10.416;2024-02-21T04:21:29;8.80;66.10
81524;DHT22;70954;49.500;10.416;2024-02-21T04:23:55;8.80;66.30
81524;DHT22;70954;49.500;10.416;2024-02-21T04:26:20;8.80;66.20
81524;DHT22;70954;49.500;10.416;2024-02-21T04:28:46;8.80;66.20
81524;DHT22;70954;49.500;10.416;2024-02-21T04:31:11;8.80;66.10
81524;DHT22;70954;49.500;10.416;2024-02-21T04:33:36;8.80;66.10
81524;DHT22;70954;49.500;10.416;2024-02-21T04:36:02;8.80;66.00
81524;DHT22;70954;49.500;10.416;2024-02-21T04:38:28;8.80;66.10
81524;DHT22;70954;49.500;10.416;2024-02-21T04:40:53;8.90;66.00
81524;DHT22;70954;49.500;10.416;2024-02-21T04:43:18;8.90;65.90
81524;DHT22;70954;49.500;10.416;2024-02-21T04:45:45;8.90;65.90
81524;DHT22;70954;49.500;10.416;2024-02-21T04:48:10;8.90;65.80
81524;DHT22;70954;49.500;10.416;2024-02-21T04:50:36;8.90;65.80
81524;DHT22;70954;49.500;10.416;2024-02-21T04:53:01;8.90;65.70
81524;DHT22;70954;49.500;10.416;2024-02-21T04:55:27;8.90;65.60
81524;DHT22;70954;49.500;10.416;2024-02-21T04:57:52;8.90;65.60
81524;DHT22;70954;49.500;10.416;2024-02-21T05:00:18;8.90;65.60
81524;DHT22;70954;49.500;10.416;2024-02-21T05:02:43;8.90;65.60
81524;DHT22;70954;49.500;10.416;2024-02-21T05:05:09;8.90;65.50
81524;DHT22;70954;49.500;10.416;2024-02-21T05:07:35;8.90;65.50
81524;DHT22;70954;49.500;10.416;2024-02-21T05:10:00;8.90;65.50
81524;DHT22;70954;49.500;10.416;2024-02-21T05:12:26;8.90;65.50
81524;DHT22;70954;49.500;10.416;2024-02-21T05:14:51;8.90;65.50
81524;DHT22;70954;49.500;10.416;2024-02-21T05:17:17;8.90;65.50
81524;DHT22;70954;49.500;10.416;2024-02-21T05:19:42;8.90;65.40
81524;DHT22;70954;49.500;10.416;2024-02-21T05:22:08;8.90;65.40
81524;DHT22;70954;49.500;10.416;2024-02-21T05:24:33;8.90;65.40
81524;DHT22;70954;49.500;10.416;2024-02-21T05:26:59;8.90;65.30
81524;DHT22;70954;49.500;10.416;2024-02-21T05:29:24;8.90;65.30
81524;DHT22;70954;49.500;10.416;2024-02-21T05:34:18;8.90;65.10
81524;DHT22;70954;49.500;10.416;2024-02-21T05:36:44;8.90;65.10
81524;DHT22;70954;49.500;10.416;2024-02-21T05:39:10;8.80;65.10
81524;DHT22;70954;49.500;10.416;2024-02-21T05:41:35;8.80;65.20
81524;DHT22;70954;49.500;10.416;2024-02-21T05:44:01;8.80;65.10
81524;DHT22;70954;49.500;10.416;2024-02-21T05:46:27;8.70;65.20
81524;DHT22;70954;49.500;10.416;2024-02-21T05:48:52;8.60;65.30
81524;DHT22;70954;49.500;10.416;2024-02-21T05:51:17;8.60;65.40
81524;DHT22;70954;49.500;10.416;2024-02-21T05:53:43;8.60;65.40
81524;DHT22;70954;49.500;10.416;2024-02-21T05:56:12;8.50;65.60
81524;DHT22;70954;49.500;10.416;2024-02-21T05:58:38;8.50;65.60
81524;DHT22;70954;49.500;10.416;2024-02-21T06:01:03;8.40;66.10
81524;DHT22;70954;49.500;10.416;2024-02-21T06:03:29;8.40;65.80
81524;DHT22;70954;49.500;10.416;2024-02-21T06:05:55;8.40;65.80
81524;DHT22;70954;49.500;10.416;2024-02-21T06:08:20;8.40;66.20
81524;DHT22;70954;49.500;10.416;2024-02-21T06:10:46;8.40;66.40
81524;DHT22;70954;49.500;10.416;2024-02-21T06:13:11;8.30;66.40
81524;DHT22;70954;49.500;10.416;2024-02-21T06:15:37;8.30;66.60
81524;DHT22;70954;49.500;10.416;2024-02-21T06:18:02;8.30;66.50
81524;DHT22;70954;49.500;10.416;2024-02-21T06:20:28;8.30;66.70
81524;DHT22;70954;49.500;10.416;2024-02-21T06:22:54;8.30;66.90
81524;DHT22;70954;49.500;10.416;2024-02-21T06:25:19;8.30;66.80
81524;DHT22;70954;49.500;10.416;2024-02-21T06:27:45;8.30;66.70
81524;DHT22;70954;49.500;10.416;2024-02-21T06:30:10;8.40;66.70
81524;DHT22;70954;49.500;10.416;2024-02-21T06:32:36;8.40;66.60
81524;DHT22;70954;49.500;10.416;2024-02-21T06:35:01;8.30;66.60
81524;DHT22;70954;49.500;10.416;2024-02-21T06:37:27;8.40;66.50
81524;DHT22;70954;49.500;10.416;2024-02-21T06:39:53;8.40;66.40
81524;DHT22;70954;49.500;10.416;2024-02-21T06:42:18;8.40;66.30
81524;DHT22;70954;49.500;10.416;2024-02-21T06:44:44;8.40;66.30
81524;DHT22;70954;49.500;10.416;2024-02-21T06:47:09;8.40;66.30
81524;DHT22;70954;49.500;10.416;2024-02-21T06:49:35;8.40;66.30
81524;DHT22;70954;49.500;10.416;2024-02-21T06:52:00;8.40;66.30
81524;DHT22;70954;49.500;10.416;2024-02-21T06:54:26;8.40;66.30
81524;DHT22;70954;49.500;10.416;2024-02-21T06:56:51;8.40;66.30
81524;DHT22;70954;49.500;10.416;2024-02-21T06:59:17;8.40;66.30
81524;DHT22;70954;49.500;10.416;2024-02-21T07:01:49;8.40;66.20
81524;DHT22;70954;49.500;10.416;2024-02-21T07:04:15;8.40;66.20
81524;DHT22;70954;49.500;10.416;2024-02-21T07:06:40;8.40;66.20
81524;DHT22;70954;49.500;10.416;2024-02-21T07:09:06;8.40;66.20
81524;DHT22;70954;49.500;10.416;2024-02-21T07:11:31;8.40;66.20
81524;DHT22;70954;49.500;10.416;2024-02-21T07:13:57;8.40;66.30
81524;DHT22;70954;49.500;10.416;2024-02-21T07:16:22;8.40;66.30
81524;DHT22;70954;49.500;10.416;2024-02-21T07:18:48;8.40;66.50
81524;DHT22;70954;49.500;10.416;2024-02-21T07:21:13;8.40;66.50
81524;DHT22;70954;49.500;10.416;2024-02-21T07:23:42;8.40;66.60
81524;DHT22;70954;49.500;10.416;2024-02-21T07:26:07;8.40;66.70
81524;DHT22;70954;49.500;10.416;2024-02-21T07:28:33;8.50;66.80
81524;DHT22;70954;49.500;10.416;2024-02-21T07:30:59;8.50;66.80
81524;DHT22;70954;49.500;10.416;2024-02-21T07:33:25;8.50;66.90
81524;DHT22;70954;49.500;10.416;2024-02-21T07:35:51;8.60;66.90
81524;DHT22;70954;49.500;10.416;2024-02-21T07:38:16;8.60;66.80
81524;DHT22;70954;49.500;10.416;2024-02-21T07:40:42;8.60;66.70
81524;DHT22;70954;49.500;10.416;2024-02-21T07:43:09;8.70;66.60
81524;DHT22;70954;49.500;10.416;2024-02-21T07:45:34;8.70;66.40
81524;DHT22;70954;49.500;10.416;2024-02-21T07:48:00;8.70;66.20
81524;DHT22;70954;49.500;10.416;2024-02-21T07:50:25;8.80;66.20
81524;DHT22;70954;49.500;10.416;2024-02-21T07:52:50;8.80;66.20
81524;DHT22;70954;49.500;10.416;2024-02-21T07:55:16;8.80;66.30
81524;DHT22;70954;49.500;10.416;2024-02-21T07:57:41;8.90;66.20
81524;DHT22;70954;49.500;10.416;2024-02-21T08:00:07;8.90;66.20
81524;DHT22;70954;49.500;10.416;2024-02-21T08:02:33;8.90;66.20
81524;DHT22;70954;49.500;10.416;2024-02-21T08:04:58;9.00;66.20
81524;DHT22;70954;49.500;10.416;2024-02-21T08:07:23;9.00;66.20
81524;DHT22;70954;49.500;10.416;2024-02-21T08:09:49;9.00;66.10
81524;DHT22;70954;49.500;10.416;2024-02-21T08:12:14;9.00;65.90
81524;DHT22;70954;49.500;10.416;2024-02-21T08:14:40;9.00;65.90
81524;DHT22;70954;49.500;10.416;2024-02-21T08:17:05;9.10;66.00
81524;DHT22;70954;49.500;10.416;2024-02-21T08:19:31;9.20;66.00
81524;DHT22;70954;49.500;10.416;2024-02-21T08:21:56;9.20;65.80
81524;DHT22;70954;49.500;10.416;2024-02-21T08:24:21;9.20;65.60
81524;DHT22;70954;49.500;10.416;2024-02-21T08:26:47;9.20;65.70
81524;DHT22;70954;49.500;10.416;2024-02-21T08:29:12;9.30;65.80
81524;DHT22;70954;49.500;10.416;2024-02-21T08:31:38;9.30;65.80
81524;DHT22;70954;49.500;10.416;2024-02-21T08:34:04;9.40;65.80
81524;DHT22;70954;49.500;10.416;2024-02-21T08:36:33;9.40;65.90
81524;DHT22;70954;49.500;10.416;2024-02-21T08:39:00;9.50;66.00
81524;DHT22;70954;49.500;10.416;2024-02-21T08:41:26;9.50;66.10
81524;DHT22;70954;49.500;10.416;2024-02-21T08:43:52;9.60;66.20
81524;DHT22;70954;49.500;10.416;2024-02-21T08:46:18;9.70;66.10
81524;DHT22;70954;49.500;10.416;2024-02-21T08:48:44;9.80;66.00
81524;DHT22;70954;49.500;10.416;2024-02-21T08:51:09;9.90;65.70
81524;DHT22;70954;49.500;10.416;2024-02-21T08:53:34;10.00;65.90
81524;DHT22;70954;49.500;10.416;2024-02-21T08:56:00;10.00;65.80
81524;DHT22;70954;49.500;10.416;2024-02-21T08:58:25;10.10;64.70
81524;DHT22;70954;49.500;10.416;2024-02-21T09:00:51;10.20;64.90
81524;DHT22;70954;49.500;10.416;2024-02-21T09:03:16;10.20;64.30
81524;DHT22;70954;49.500;10.416;2024-02-21T09:05:42;10.30;64.00
81524;DHT22;70954;49.500;10.416;2024-02-21T09:08:07;10.30;63.60
81524;DHT22;70954;49.500;10.416;2024-02-21T09:10:32;10.40;63.70
81524;DHT22;70954;49.500;10.416;2024-02-21T09:12:58;10.40;63.20
81524;DHT22;70954;49.500;10.416;2024-02-21T09:15:23;10.40;63.00
81524;DHT22;70954;49.500;10.416;2024-02-21T09:17:49;10.40;62.90
81524;DHT22;70954;49.500;10.416;2024-02-21T09:20:14;10.40;62.50
81524;DHT22;70954;49.500;10.416;2024-02-21T09:22:40;10.50;62.80
81524;DHT22;70954;49.500;10.416;2024-02-21T09:25:06;10.50;62.30
81524;DHT22;70954;49.500;10.416;2024-02-21T09:27:32;10.50;62.40
81524;DHT22;70954;49.500;10.416;2024-02-21T09:29:58;10.50;62.40
81524;DHT22;70954;49.500;10.416;2024-02-21T09:32:23;10.60;62.30
81524;DHT22;70954;49.500;10.416;2024-02-21T09:34:49;10.60;62.10
81524;DHT22;70954;49.500;10.416;2024-02-21T09:37:14;10.60;62.10
81524;DHT22;70954;49.500;10.416;2024-02-21T09:39:39;10.60;61.70
81524;DHT22;70954;49.500;10.416;2024-02-21T09:45:23;10.60;61.70
81524;DHT22;70954;49.500;10.416;2024-02-21T09:50:56;10.70;60.40
81524;DHT22;70954;49.500;10.416;2024-02-21T09:53:24;10.70;61.60
81524;DHT22;70954;49.500;10.416;2024-02-21T09:55:50;10.80;61.70
81524;DHT22;70954;49.500;10.416;2024-02-21T09:58:16;10.80;61.90
81524;DHT22;70954;49.500;10.416;2024-02-21T10:00:42;10.80;62.10
81524;DHT22;70954;49.500;10.416;2024-02-21T10:03:07;10.90;62.10
81524;DHT22;70954;49.500;10.416;2024-02-21T10:05:36;10.90;61.20
81524;DHT22;70954;49.500;10.416;2024-02-21T10:08:02;11.00;61.20
81524;DHT22;70954;49.500;10.416;2024-02-21T10:10:27;11.10;61.20
81524;DHT22;70954;49.500;10.416;2024-02-21T10:12:53;11.10;60.80
81524;DHT22;70954;49.500;10.416;2024-02-21T10:15:23;11.10;61.00
81524;DHT22;70954;49.500;10.416;2024-02-21T10:17:48;11.10;60.90
81524;DHT22;70954;49.500;10.416;2024-02-21T10:20:14;11.20;60.70
81524;DHT22;70954;49.500;10.416;2024-02-21T10:22:39;11.30;60.60
81524;DHT22;70954;49.500;10.416;2024-02-21T10:25:09;11.30;60.30
81524;DHT22;70954;49.500;10.416;2024-02-21T10:27:34;11.30;59.70
81524;DHT22;70954;49.500;10.416;2024-02-21T10:30:00;11.30;58.50
81524;DHT22;70954;49.500;10.416;2024-02-21T10:32:25;11.40;59.40
81524;DHT22;70954;49.500;10.416;2024-02-21T10:35:01;11.40;58.80
81524;DHT22;70954;49.500;10.416;2024-02-21T10:37:26;11.40;59.20
81524;DHT22;70954;49.500;10.416;2024-02-21T10:39:53;11.50;58.70
81524;DHT22;70954;49.500;10.416;2024-02-21T10:42:21;11.50;58.90
81524;DHT22;70954;49.500;10.416;2024-02-21T10:44:50;11.50;59.40
81524;DHT22;70954;49.500;10.416;2024-02-21T10:47:16;11.50;59.00
81524;DHT22;70954;49.500;10.416;2024-02-21T10:49:44;11.50;59.10
81524;DHT22;70954;49.500;10.416;2024-02-21T10:52:48;11.60;58.50
81524;DHT22;70954;49.500;10.416;2024-02-21T10:55:20;11.70;57.90
81524;DHT22;70954;49.500;10.416;2024-02-21T10:57:46;11.70;58.40
81524;DHT22;70954;49.500;10.416;2024-02-21T11:00:15;11.70;58.80
81524;DHT22;70954;49.500;10.416;2024-02-21T11:02:42;11.70;58.50
81524;DHT22;70954;49.500;10.416;2024-02-21T11:05:08;11.70;58.60
81524;DHT22;70954;49.500;10.416;2024-02-21T11:07:36;11.90;58.70
81524;DHT22;70954;49.500;10.416;2024-02-21T11:10:02;11.90;58.70
81524;DHT22;70954;49.500;10.416;2024-02-21T11:12:28;11.90;58.10
81524;DHT22;70954;49.500;10.416;2024-02-21T11:15:04;11.90;57.50
81524;DHT22;70954;49.500;10.416;2024-02-21T11:17:29;12.00;57.90
81524;DHT22;70954;49.500;10.416;2024-02-21T11:19:55;12.00;57.70
81524;DHT22;70954;49.500;10.416;2024-02-21T11:22:20;12.00;58.00
81524;DHT22;70954;49.500;10.416;2024-02-21T11:24:46;12.10;57.60
81524;DHT22;70954;49.500;10.416;2024-02-21T11:27:12;12.20;58.00
81524;DHT22;70954;49.500;10.416;2024-02-21T11:29:44;12.20;58.00
81524;DHT22;70954;49.500;10.416;2024-02-21T11:32:11;12.30;57.50
81524;DHT22;70954;49.500;10.416;2024-02-21T11:34:36;12.30;57.50
81524;DHT22;70954;49.500;10.416;2024-02-21T11:37:02;12.40;57.70
81524;DHT22;70954;49.500;10.416;2024-02-21T11:39:37;12.50;57.30
81524;DHT22;70954;49.500;10.416;2024-02-21T11:42:07;12.50;56.20
81524;DHT22;70954;49.500;10.416;2024-02-21T11:44:34;12.50;56.90
81524;DHT22;70954;49.500;10.416;2024-02-21T11:47:00;12.50;57.00
81524;DHT22;70954;49.500;10.416;2024-02-21T11:49:29;12.60;57.30
81524;DHT22;70954;49.500;10.416;2024-02-21T11:52:01;12.70;57.00
81524;DHT22;70954;49.500;10.416;2024-02-21T11:54:27;12.70;56.40
81524;DHT22;70954;49.500;10.416;2024-02-21T11:56:53;12.80;56.80
81524;DHT22;70954;49.500;10.416;2024-02-21T11:59:19;12.80;57.10
81524;DHT22;70954;49.500;10.416;2024-02-21T12:01:44;12.90;56.80
81524;DHT22;70954;49.500;10.416;2024-02-21T12:04:10;12.90;56.40
81524;DHT22;70954;49.500;10.416;2024-02-21T12:06:36;13.00;56.60
81524;DHT22;70954;49.500;10.416;2024-02-21T12:09:01;13.00;55.10
81524;DHT22;70954;49.500;10.416;2024-02-21T12:11:26;13.10;55.70
81524;DHT22;70954;49.500;10.416;2024-02-21T12:14:02;13.10;55.50
81524;DHT22;70954;49.500;10.416;2024-02-21T12:16:28;13.10;54.70
81524;DHT22;70954;49.500;10.416;2024-02-21T12:18:54;13.10;54.60
81524;DHT22;70954;49.500;10.416;2024-02-21T12:21:19;13.20;55.20
81524;DHT22;70954;49.500;10.416;2024-02-21T12:23:48;13.20;55.40
81524;DHT22;70954;49.500;10.416;2024-02-21T12:26:13;13.30;55.70
81524;DHT22;70954;49.500;10.416;2024-02-21T12:28:39;13.30;55.50
81524;DHT22;70954;49.500;10.416;2024-02-21T12:31:04;13.30;55.20
81524;DHT22;70954;49.500;10.416;2024-02-21T12:33:30;13.30;55.00
81524;DHT22;70954;49.500;10.416;2024-02-21T12:35:56;13.40;54.60
81524;DHT22;70954;49.500;10.416;2024-02-21T12:38:21;13.50;54.90
81524;DHT22;70954;49.500;10.416;2024-02-21T12:40:47;13.50;54.80
81524;DHT22;70954;49.500;10.416;2024-02-21T12:43:12;13.50;54.50
81524;DHT22;70954;49.500;10.416;2024-02-21T12:45:38;13.50;54.10
81524;DHT22;70954;49.500;10.416;2024-02-21T12:48:03;13.50;54.20
81524;DHT22;70954;49.500;10.416;2024-02-21T12:50:29;13.50;54.40
81524;DHT22;70954;49.500;10.416;2024-02-21T12:53:01;13.60;53.40
81524;DHT22;70954;49.500;10.416;2024-02-21T12:55:26;13.60;53.30
81524;DHT22;70954;49.500;10.416;2024-02-21T12:57:52;13.60;53.70
81524;DHT22;70954;49.500;10.416;2024-02-21T13:00:17;13.60;53.70
81524;DHT22;70954;49.500;10.416;2024-02-21T13:02:43;13.60;52.90
81524;DHT22;70954;49.500;10.416;2024-02-21T13:05:08;13.60;53.20
81524;DHT22;70954;49.500;10.416;2024-02-21T13:07:34;13.60;53.00
81524;DHT22;70954;49.500;10.416;2024-02-21T13:09:59;13.70;53.40
81524;DHT22;70954;49.500;10.416;2024-02-21T13:12:25;13.70;53.60
81524;DHT22;70954;49.500;10.416;2024-02-21T13:14:50;13.70;53.30
81524;DHT22;70954;49.500;10.416;2024-02-21T13:17:16;13.70;53.10
81524;DHT22;70954;49.500;10.416;2024-02-21T13:19:41;13.70;52.60
81524;DHT22;70954;49.500;10.416;2024-02-21T13:22:07;13.80;52.80
81524;DHT22;70954;49.500;10.416;2024-02-21T13:24:32;13.80;52.30
81524;DHT22;70954;49.500;10.416;2024-02-21T13:26:58;13.90;52.30
81524;DHT22;70954;49.500;10.416;2024-02-21T13:29:23;13.90;52.70
81524;DHT22;70954;49.500;10.416;2024-02-21T13:31:49;13.90;52.40
81524;DHT22;70954;49.500;10.416;2024-02-21T13:34:14;13.90;52.00
81524;DHT22;70954;49.500;10.416;2024-02-21T13:36:40;13.90;52.60
81524;DHT22;70954;49.500;10.416;2024-02-21T13:39:05;13.90;52.70
81524;DHT22;70954;49.500;10.416;2024-02-21T13:41:31;13.90;52.80
81524;DHT22;70954;49.500;10.416;2024-02-21T13:43:56;13.90;52.90
81524;DHT22;70954;49.500;10.416;2024-02-21T13:46:22;14.00;51.90
81524;DHT22;70954;49.500;10.416;2024-02-21T13:48:47;14.00;52.20
81524;DHT22;70954;49.500;10.416;2024-02-21T13:51:13;14.00;52.20
81524;DHT22;70954;49.500;10.416;2024-02-21T13:53:38;14.00;52.00
81524;DHT22;70954;49.500;10.416;2024-02-21T13:56:04;14.00;51.60
81524;DHT22;70954;49.500;10.416;2024-02-21T13:58:29;14.00;50.70
81524;DHT22;70954;49.500;10.416;2024-02-21T14:00:55;14.00;50.70
81524;DHT22;70954;49.500;10.416;2024-02-21T14:03:20;14.00;50.70
81524;DHT22;70954;49.500;10.416;2024-02-21T14:05:46;14.00;51.00
81524;DHT22;70954;49.500;10.416;2024-02-21T14:08:11;14.00;51.20
81524;DHT22;70954;49.500;10.416;2024-02-21T14:10:37;14.00;51.50
81524;DHT22;70954;49.500;10.416;2024-02-21T14:13:02;14.00;51.70
81524;DHT22;70954;49.500;10.416;2024-02-21T14:15:28;14.00;51.20
81524;DHT22;70954;49.500;10.416;2024-02-21T14:17:53;14.00;51.50
81524;DHT22;70954;49.500;10.416;2024-02-21T14:20:19;14.10;51.30
81524;DHT22;70954;49.500;10.416;2024-02-21T14:22:44;14.10;51.30
81524;DHT22;70954;49.500;10.416;2024-02-21T14:25:09;14.10;51.00
81524;DHT22;70954;49.500;10.416;2024-02-21T14:27:35;14.10;50.80
81524;DHT22;70954;49.500;10.416;2024-02-21T14:30:00;14.10;51.00
81524;DHT22;70954;49.500;10.416;2024-02-21T14:32:26;14.10;51.10
81524;DHT22;70954;49.500;10.416;2024-02-21T14:34:51;14.10;51.00
81524;DHT22;70954;49.500;10.416;2024-02-21T14:37:17;14.10;50.80
81524;DHT22;70954;49.500;10.416;2024-02-21T14:39:42;14.20;50.70
81524;DHT22;70954;49.500;10.416;2024-02-21T14:42:07;14.20;50.70
81524;DHT22;70954;49.500;10.416;2024-02-21T14:44:33;14.10;50.30
81524;DHT22;70954;49.500;10.416;2024-02-21T14:46:58;14.10;50.70
81524;DHT22;70954;49.500;10.416;2024-02-21T14:49:24;14.10;50.70
81524;DHT22;70954;49.500;10.416;2024-02-21T14:51:49;14.10;50.70
81524;DHT22;70954;49.500;10.416;2024-02-21T14:54:14;14.10;50.80
81524;DHT22;70954;49.500;10.416;2024-02-21T14:56:40;14.10;50.90
81524;DHT22;70954;49.500;10.416;2024-02-21T14:59:05;14.10;50.00
81524;DHT22;70954;49.500;10.416;2024-02-21T15:01:36;14.10;50.20
81524;DHT22;70954;49.500;10.416;2024-02-21T15:04:01;14.10;50.40
81524;DHT22;70954;49.500;10.416;2024-02-21T15:06:27;14.10;50.70
81524;DHT22;70954;49.500;10.416;2024-02-21T15:08:52;14.10;50.70
81524;DHT22;70954;49.500;10.416;2024-02-21T15:11:18;14.10;50.80
81524;DHT22;70954;49.500;10.416;2024-02-21T15:13:43;14.10;50.90
81524;DHT22;70954;49.500;10.416;2024-02-21T15:16:09;14.10;50.70
81524;DHT22;70954;49.500;10.416;2024-02-21T15:18:34;14.10;50.70
81524;DHT22;70954;49.500;10.416;2024-02-21T15:20:59;14.10;50.80
81524;DHT22;70954;49.500;10.416;2024-02-21T15:23:25;14.10;50.70
81524;DHT22;70954;49.500;10.416;2024-02-21T15:25:50;14.10;50.70
81524;DHT22;70954;49.500;10.416;2024-02-21T15:28:16;14.10;50.70